All
Cape Flattery Airport (Cape Flattery, Queensland) YCFL Weather
|
Cape Flattery, Queensland (YCFL)
Clear skies
Windy |
|
77 °F |
There is no TAF data available at YCFL or any nearby airports.
Recent YCFL METAR history
| Date | Time (AEST) | Flight Rules | Wind Dir. | Speed | Type | Height AGL (ft) | Visibility | Temp (°C) | Temp (°F) | Dew Point (°C) | Dew Point (°F) | Rel. Humid. | Pressure | Density Altitude | Remarks |
|---|---|---|---|---|---|---|---|---|---|---|---|---|---|---|---|
| 06-May | 04:00AM | n/a | 140° | 11 kt | Missing | 25° | 77° | 22° | 71° | 83% | 1011 mb | 1,311 ft | |||
| 06-May | 03:00AM | n/a | 160° | 13 kt | Missing | 25° | 77° | 21° | 69° | 79% | 1011 mb | 1,311 ft | |||
| 06-May | 02:00AM | n/a | 160° | 14 kt | Missing | 25° | 77° | 22° | 71° | 83% | 1012 mb | 1,282 ft | |||
| 06-May | 01:00AM | n/a | 150° | 14 kt | Missing | 25° | 77° | 21° | 69° | 79% | 1012 mb | 1,282 ft | |||
| 06-May | 12:00AM | n/a | 150° | 15 kt | Missing | 25° | 77° | 21° | 69° | 79% | 1013 mb | 1,252 ft | |||
| 05-May | 11:00PM | n/a | 150° | 15 kt | Missing | 25° | 77° | 22° | 71° | 83% | 1013 mb | 1,252 ft | |||
| 05-May | 10:00PM | n/a | 150° | 16 kt | Missing | 25° | 77° | 22° | 71° | 83% | 1013 mb | 1,252 ft | |||
| 05-May | 09:00PM | n/a | 150° | 15 kt | Missing | 25° | 77° | 21° | 69° | 79% | 1014 mb | 1,223 ft | |||
| 05-May | 08:00PM | n/a | 150° | 15 kt | Missing | 25° | 77° | 21° | 69° | 79% | 1013 mb | 1,252 ft | |||
| 05-May | 07:00PM | n/a | 160° | 14 kt | Missing | 25° | 77° | 21° | 69° | 79% | 1013 mb | 1,252 ft | |||
| 05-May | 06:00PM | n/a | 160° | 15 kt | Missing | 25° | 77° | 21° | 69° | 79% | 1012 mb | 1,282 ft | |||
| 05-May | 05:00PM | n/a | 160° | 15 kt | Missing | 26° | 78° | 23° | 73° | 84% | 1012 mb | 1,402 ft | |||
| 05-May | 04:00PM | n/a | 130° | 13 kt | Missing | 24° | 75° | 21° | 69° | 83% | 1011 mb | 1,191 ft | |||
| 05-May | 03:00PM | n/a | 160° | 12 kt | Missing | 27° | 80° | 21° | 69° | 70% | 1011 mb | 1,551 ft | |||
| 05-May | 02:00PM | n/a | 170° | 12 kt | Missing | 26° | 78° | 21° | 69° | 74% | 1012 mb | 1,402 ft | |||
| 05-May | 01:00PM | n/a | 170° | 16 kt | Missing | 27° | 80° | 22° | 71° | 74% | 1012 mb | 1,522 ft | |||
| 05-May | 12:00PM | n/a | 170° | 17 kt | Missing | 27° | 80° | 23° | 73° | 79% | 1013 mb | 1,492 ft | |||
| 05-May | 11:00AM | n/a | 160° | 14 kt | Missing | 26° | 78° | 24° | 75° | 89% | 1014 mb | 1,343 ft | |||
| 05-May | 10:00AM | n/a | 160° | 14 kt | Missing | 25° | 77° | 24° | 75° | 94% | 1014 mb | 1,223 ft | |||
| 05-May | 09:00AM | n/a | 160° | 13 kt | Missing | 25° | 77° | 23° | 73° | 89% | 1014 mb | 1,223 ft | |||
| 05-May | 08:00AM | n/a | 170° | 13 kt | Missing | 25° | 77° | 23° | 73° | 89% | 1013 mb | 1,252 ft | |||
| 05-May | 07:00AM | n/a | 170° | 12 kt | Missing | 24° | 75° | 23° | 73° | 94% | 1013 mb | 1,132 ft | |||
| 05-May | 06:00AM | n/a | 160° | 13 kt | Missing | 24° | 75° | 22° | 71° | 89% | 1012 mb | 1,162 ft | |||
| 05-May | 05:00AM | n/a | 160° | 14 kt | Missing | 24° | 75° | 22° | 71° | 89% | 1012 mb | 1,162 ft |
Login
| Your browser is unsupported. upgrade your browser |
